• Join FlightAware (Why Join?)
  • Login
  • US Flag 
Rudolph Flight #1: Arrived! 
08:58AM EST


 

Airport Tracker/Info


-or-


 

Live Flight TrackerFlight Track Log ✈ DAL6034 ✈ 17-Apr-2013 ✈ KMHT - KLGA

Flight Track Log - Related Links

Times and Time Zones

All times are in EDT time to prevent confusion due to time zone crossing. See the DAL6034 flight status page for this flight to view local times or setup timezone preferences in your user account.

Time Position Orientation Groundspeed Altitude Reporting Facility
EDT Latitude Longitude Course Direction KTS MPH feet Rate Location/Type
05:25PM 42.9333 -71.4333 231° Southwest 147 169 900  Level KA90
05:26PM 42.9650 -71.4528 336° Northwest 162 186 2,000 1,740 Climbing Boston Center
05:27PM 43.0111 -71.4889 330° Northwest 243 280 3,600 1,320 Climbing Boston Center
05:28PM 43.0017 -71.5800 262° West 230 265 4,800 1,920 Climbing Boston Center
05:29PM 43.0022 -71.6622 271° West 236 272 7,400 2,460 Climbing Boston Center
05:30PM 43.0361 -71.7442 300° West 230 265 9,700 2,100 Climbing Boston Center
05:31PM 42.5670 -72.0327 231° Southwest  Level FlightAware Approximate
05:31PM 43.0344 -71.8350 269° West 240 276 11,700  Level Boston Center
05:32PM 42.9828 -71.9208 231° Southwest 258 297 13,300 1,620 Climbing Boston Center
05:33PM 42.9228 -72.0064 226° Southwest 311 358 15,000 1,380 Climbing Boston Center
05:34PM 42.8606 -72.1003 228° Southwest 330 380 16,100 1,380 Climbing Boston Center
05:35PM 42.7942 -72.1967 227° Southwest 346 398 17,800 900 Climbing Boston Center
05:36PM 42.7275 -72.2989 228° Southwest 346 398 18,000 60 Climbing Boston Center
05:37PM 42.6525 -72.4061 226° Southwest 372 428 18,000  Level Boston Center
05:38PM 42.5775 -72.5161 227° Southwest 395 455 18,000  Level Boston Center
05:39PM 42.5025 -72.6289 228° Southwest 395 455 18,000  Level Boston Center
05:40PM 42.4272 -72.7325 225° Southwest 395 455 18,000  Level Boston Center
05:41PM 42.3600 -72.8333 228° Southwest 395 455 18,000  Level Boston Center
05:42PM 42.2806 -72.9508 228° Southwest 395 455 18,000  Level Boston Center
05:43PM 42.2133 -73.0483 227° Southwest 395 455 18,000  Level Boston Center
05:44PM 42.1314 -73.1681 227° Southwest 395 455 18,000 -120 Level Boston Center
05:45PM 42.0639 -73.2622 226° Southwest 395 455 17,800 -720 Descending Boston Center
05:46PM 41.9858 -73.3758 227° Southwest 389 448 16,600 -1,200 Descending Boston Center
05:47PM 41.9183 -73.4697 226° Southwest 389 448 15,400 -1,260 Descending Boston Center
05:48PM 41.8361 -73.5853 226° Southwest 395 455 14,100 -1,260 Descending Boston Center
05:49PM 41.7686 -73.6647 221° Southwest 379 436 13,000 -1,260 Descending Boston Center
05:50PM 41.6681 -73.7017 195° South 344 396 11,700 -1,140 Descending Boston Center
05:51PM 41.5950 -73.7225 192° South 310 357 10,700 -1,080 Descending Boston Center
05:52PM 41.5333 -73.7333 187° South 287 330 9,800 -960 Descending New York TRACON
05:53PM 41.4500 -73.7667 197° South 283 326 9,100 -360 Descending New York TRACON
05:54PM 41.3833 -73.7833 191° South 278 320 9,100 -600 Level New York TRACON
05:55PM 41.3000 -73.7667 171° South 305 351 7,900 -1,260 Descending New York TRACON
05:56PM 41.2333 -73.7000 143° Southeast 292 336 6,600 -1,200 Descending New York TRACON
05:57PM 41.1667 -73.6500 151° Southeast 256 295 5,600 -1,200 Descending New York TRACON
05:58PM 41.1167 -73.6000 143° Southeast 243 280 4,200 -840 Descending New York TRACON
05:59PM 41.0500 -73.6500 209° Southwest 231 266 4,000 -120 Descending New York TRACON
06:00PM 41.0000 -73.6833 207° Southwest 238 274 4,000  Level New York TRACON
06:01PM 40.9833 -73.7667 255° West 221 254 4,000  Level New York TRACON
06:02PM 40.9500 -73.8333 237° Southwest 226 260 4,000  Level New York TRACON
06:03PM 40.9167 -73.9167 242° Southwest 219 252 4,100  Climbing New York TRACON
06:04PM 40.8667 -73.9500 207° Southwest 225 259 4,000 -60 Descending New York TRACON
06:05PM 40.8167 -73.9833 207° Southwest 222 255 4,000  Level New York TRACON
06:06PM 40.7500 -74.0167 201° Southwest 222 255 4,100  Climbing New York TRACON
06:07PM 40.7000 -74.0500 207° Southwest 218 251 4,100 -540 Level New York TRACON
06:08PM 40.6500 -74.0833 207° Southwest 197 227 3,100 -540 Descending New York TRACON
06:09PM 40.6000 -74.1000 194° South 204 235 3,100 -60 Level New York TRACON
06:10PM 40.6000 -74.0333 90° East 192 221 3,000  Descending New York TRACON
06:11PM 40.6333 -74.0000 37° Northeast 183 211 3,100 60 Climbing New York TRACON